| time (UTC) | temp F | wind direction | speed knots | gust knots | rain 1hr in | rain 24hr in | rain mn in | humidity % | barometer mb |
| 20260507104204 | 46 | 310 | 1.7 | 2.6 | 0.00 | 0.19 | 0.05 | 94 | 1005.5 |
| 20260507103703 | 46 | 310 | 1.7 | 2.6 | 0.00 | 0.19 | 0.05 | 94 | 1005.6 |
| 20260507102704 | 46 | 310 | 0.9 | 1.7 | 0.00 | 0.19 | 0.05 | 94 | 1005.7 |
| 20260507102203 | 46 | 310 | 0.9 | 2.6 | 0.00 | 0.19 | 0.05 | 94 | 1005.8 |
| 20260507101704 | 46 | 310 | 1.7 | 2.6 | 0.00 | 0.19 | 0.05 | 94 | 1005.7 |
| 20260507101204 | 46 | 310 | 0.9 | 2.6 | 0.00 | 0.19 | 0.05 | 94 | 1005.5 |
| 20260507100704 | 46 | 310 | 0.9 | 4.3 | 0.01 | 0.19 | 0.05 | 94 | 1005.5 |
| 20260507095204 | 46 | 300 | 1.7 | 5.2 | 0.02 | 0.19 | 0.05 | 95 | 1005.3 |
| 20260507094703 | 46 | 300 | 1.7 | 5.2 | 0.02 | 0.19 | 0.05 | 95 | 1005.3 |
| 20260507094203 | 46 | 300 | 1.7 | 5.2 | 0.02 | 0.19 | 0.05 | 95 | 1005.2 |
| 20260507093703 | 46 | 300 | 1.7 | 4.3 | 0.03 | 0.19 | 0.05 | 95 | 1005.2 |
| 20260507093204 | 46 | 300 | 1.7 | 7.0 | 0.03 | 0.19 | 0.05 | 95 | 1005.2 |
| 20260507092704 | 46 | 300 | 1.7 | 2.6 | 0.03 | 0.19 | 0.05 | 95 | 1005.2 |
| 20260507092203 | 46 | 300 | 1.7 | 2.6 | 0.03 | 0.19 | 0.05 | 96 | 1005.2 |
| 20260507091703 | 46 | 300 | 1.7 | 5.2 | 0.03 | 0.19 | 0.05 | 96 | 1005.1 |
| 20260507091204 | 46 | 300 | 0.9 | 2.6 | 0.03 | 0.19 | 0.05 | 96 | 1005.1 |
| 20260507085703 | 47 | 310 | 0.0 | 1.7 | 0.03 | 0.18 | 0.04 | 95 | 1005.3 |
| 20260507085204 | 47 | 310 | 0.9 | 2.6 | 0.02 | 0.17 | 0.03 | 95 | 1005.4 |
| 20260507084203 | 47 | 310 | 1.7 | 2.6 | 0.02 | 0.17 | 0.03 | 95 | 1005.6 |
| 20260507083703 | 47 | 310 | 0.9 | 2.6 | 0.01 | 0.16 | 0.02 | 95 | 1005.6 |
| 20260507083204 | 47 | 310 | 1.7 | 5.2 | 0.01 | 0.16 | 0.02 | 95 | 1005.6 |
| 20260507082703 | 47 | 310 | 0.9 | 2.6 | 0.01 | 0.16 | 0.02 | 95 | 1005.6 |
| 20260507082204 | 47 | 310 | 1.7 | 2.6 | 0.01 | 0.16 | 0.02 | 94 | 1005.5 |
| 20260507081704 | 47 | 310 | 0.9 | 2.6 | 0.01 | 0.16 | 0.02 | 95 | 1005.5 |
| 20260507080203 | 49 | 310 | 0.9 | 2.6 | 0.02 | 0.16 | 0.02 | 94 | 1005.4 |
| 20260507075704 | 48 | 310 | 0.9 | 2.6 | 0.01 | 0.15 | 0.01 | 93 | 1005.3 |
| 20260507075204 | 48 | 310 | 0.9 | 2.6 | 0.01 | 0.15 | 0.01 | 93 | 1005.2 |
| 20260507074704 | 48 | 310 | 1.7 | 5.2 | 0.01 | 0.15 | 0.01 | 92 | 1005.3 |
| 20260507074203 | 48 | 310 | 1.7 | 5.2 | 0.01 | 0.15 | 0.01 | 92 | 1005.4 |
| 20260507073704 | 48 | 310 | 0.9 | 2.6 | 0.01 | 0.15 | 0.01 | 92 | 1005.3 |
| 20260507073203 | 48 | 310 | 1.7 | 4.3 | 0.01 | 0.15 | 0.01 | 91 | 1005.4 |
| 20260507072703 | 48 | 310 | 0.9 | 4.3 | 0.01 | 0.15 | 0.01 | 90 | 1005.4 |
| 20260507072204 | 48 | 310 | 1.7 | 2.6 | 0.01 | 0.15 | 0.01 | 89 | 1005.4 |
| 20260507071704 | 48 | 310 | 1.7 | 4.3 | 0.01 | 0.15 | 0.01 | 88 | 1005.3 |
| 20260507070204 | 50 | 310 | 2.6 | 7.8 | 0.00 | 0.14 | 0.00 | 85 | 1005.1 |
| 20260507065704 | 49 | 320 | 2.6 | 4.3 | 0.00 | 0.14 | 0.00 | 84 | 1004.9 |
| 20260507065204 | 49 | 320 | 2.6 | 5.2 | 0.00 | 0.14 | 0.00 | 85 | 1004.7 |
| 20260507064704 | 49 | 320 | 1.7 | 4.3 | 0.00 | 0.14 | 0.00 | 85 | 1004.7 |
| 20260507064204 | 49 | 320 | 1.7 | 7.0 | 0.00 | 0.14 | 0.00 | 85 | 1004.7 |
| 20260507063704 | 49 | 320 | 2.6 | 5.2 | 0.00 | 0.14 | 0.00 | 86 | 1004.8 |
| 20260507063203 | 49 | 320 | 2.6 | 7.8 | 0.00 | 0.14 | 0.00 | 87 | 1004.7 |
| 20260507062704 | 49 | 320 | 1.7 | 7.0 | 0.00 | 0.14 | 0.00 | 87 | 1004.6 |
| 20260507062203 | 49 | 320 | 1.7 | 4.3 | 0.00 | 0.14 | 0.00 | 88 | 1004.7 |
| 20260507061703 | 49 | 320 | 1.7 | 4.3 | 0.00 | 0.14 | 0.00 | 88 | 1004.8 |
| 20260507061203 | 49 | 320 | 1.7 | 2.6 | 0.00 | 0.14 | 0.00 | 88 | 1005.0 |
| 20260507060703 | 49 | 320 | 1.7 | 2.6 | 0.00 | 0.14 | 0.00 | 87 | 1005.0 |
| 20260507060204 | 49 | 320 | 4.3 | 7.0 | 0.00 | 0.14 | 0.00 | 87 | 1004.9 |
| 20260507055703 | 50 | 310 | 2.6 | 5.2 | 0.00 | 0.14 | 0.00 | 87 | 1004.8 |
| 20260507055204 | 50 | 310 | 1.7 | 4.3 | 0.00 | 0.14 | 0.00 | 88 | 1004.9 |
| 20260507054704 | 50 | 310 | 1.7 | 5.2 | 0.00 | 0.14 | 0.00 | 89 | 1004.8 |
| 20260507054204 | 50 | 310 | 1.7 | 5.2 | 0.00 | 0.14 | 0.00 | 89 | 1004.8 |
| 20260507053703 | 50 | 310 | 0.9 | 2.6 | 0.00 | 0.14 | 0.00 | 88 | 1005.1 |
| 20260507052704 | 51 | 310 | 2.6 | 7.0 | 0.00 | 0.14 | 0.00 | 88 | 1005.1 |
| 20260507052203 | 51 | 310 | 4.3 | 7.8 | 0.00 | 0.14 | 0.00 | 90 | 1005.1 |
| 20260507051703 | 51 | 310 | 2.6 | 8.7 | 0.00 | 0.14 | 0.00 | 92 | 1005.2 |
| 20260507051203 | 51 | 300 | 2.6 | 7.0 | 0.00 | 0.14 | 0.00 | 93 | 1005.3 |
| 20260507050704 | 51 | 300 | 2.6 | 7.8 | 0.00 | 0.14 | 0.00 | 94 | 1005.2 |
| 20260507050204 | 51 | 300 | 4.3 | 7.8 | 0.00 | 0.14 | 0.00 | 94 | 1004.9 |
| 20260507045704 | 52 | 290 | 2.6 | 7.8 | 0.00 | 0.14 | 0.00 | 94 | 1005.0 |
| 20260507044704 | 52 | 290 | 1.7 | 5.2 | 0.00 | 0.14 | 0.00 | 94 | 1004.9 |
| 20260507043704 | 52 | 280 | 1.7 | 5.2 | 0.00 | 0.14 | 0.00 | 94 | 1005.0 |
| 20260507043203 | 52 | 280 | 1.7 | 5.2 | 0.00 | 0.14 | 0.00 | 94 | 1005.1 |
| 20260507042704 | 52 | 280 | 1.7 | 4.3 | 0.00 | 0.14 | 0.00 | 94 | 1005.0 |
| 20260507042203 | 52 | 280 | 1.7 | 2.6 | 0.00 | 0.14 | 0.00 | 94 | 1005.1 |
| 20260507041703 | 52 | 280 | 1.7 | 4.3 | 0.00 | 0.14 | 0.00 | 94 | 1005.0 |
| 20260507041204 | 54 | 280 | 0.9 | 2.6 | 0.00 | 0.14 | 0.00 | 94 | 1004.9 |
| 20260507040703 | 55 | 280 | 2.6 | 7.0 | 0.00 | 0.14 | 0.00 | 94 | 1004.9 |
| 20260507040204 | 55 | 280 | 1.7 | 5.2 | 0.00 | 0.14 | 0.00 | 93 | 1004.8 |
| 20260507035704 | 54 | 280 | 1.7 | 5.2 | 0.00 | 0.14 | 0.14 | 94 | 1004.9 |
| 20260507035204 | 54 | 280 | 2.6 | 7.8 | 0.00 | 0.14 | 0.14 | 93 | 1005.0 |
| 20260507034704 | 54 | 280 | 2.6 | 5.2 | 0.00 | 0.14 | 0.14 | 94 | 1005.2 |
| 20260507034204 | 54 | 280 | 4.3 | 10.4 | 0.00 | 0.14 | 0.14 | 94 | 1005.0 |
| 20260507033704 | 54 | 280 | 5.2 | 10.4 | 0.00 | 0.14 | 0.14 | 94 | 1005.1 |
| 20260507033204 | 57 | 280 | 1.7 | 5.2 | 0.00 | 0.14 | 0.14 | 96 | 1004.9 |
| 20260507032704 | 55 | 290 | 3.5 | 10.4 | 0.00 | 0.14 | 0.14 | 95 | 1004.9 |
| 20260507032203 | 55 | 290 | 3.5 | 7.0 | 0.00 | 0.14 | 0.14 | 95 | 1004.7 |
| 20260507031704 | 55 | 290 | 2.6 | 7.0 | 0.00 | 0.14 | 0.14 | 96 | 1004.7 |
| 20260507031203 | 57 | 280 | 4.3 | 7.0 | 0.00 | 0.14 | 0.14 | 96 | 1004.5 |
| 20260507030704 | 57 | 280 | 1.7 | 4.3 | 0.00 | 0.14 | 0.14 | 97 | 1004.6 |
| 20260507030204 | 57 | 279 | 1.7 | 7.0 | 0.00 | 0.14 | 0.14 | 97 | 1004.5 |
| 20260507025703 | 58 | 230 | 2.6 | 7.0 | 0.00 | 0.14 | 0.14 | 98 | 1004.4 |
| 20260507025204 | 58 | 230 | 2.6 | 7.0 | 0.00 | 0.14 | 0.14 | 99 | 1004.3 |
| 20260507024704 | 58 | 230 | 2.6 | 4.3 | 0.00 | 0.14 | 0.14 | 99 | 1004.5 |
| 20260507024204 | 58 | 230 | 4.3 | 8.7 | 0.00 | 0.14 | 0.14 | 99 | 1004.4 |
| 20260507023704 | 58 | 230 | 1.7 | 2.6 | 0.00 | 0.14 | 0.14 | 99 | 1004.4 |
| 20260507022704 | 57 | 230 | 2.6 | 7.0 | 0.00 | 0.14 | 0.14 | 100 | 1004.2 |
| 20260507022204 | 57 | 230 | 2.6 | 7.8 | 0.00 | 0.14 | 0.14 | 100 | 1003.9 |
| 20260507021703 | 57 | 230 | 2.6 | 10.4 | 0.00 | 0.14 | 0.14 | 100 | 1003.8 |
| 20260507021204 | 57 | 230 | 2.6 | 8.7 | 0.00 | 0.14 | 0.14 | 100 | 1004.0 |
| 20260507020203 | 57 | 230 | 3.5 | 12.2 | 0.00 | 0.14 | 0.14 | 99 | 1004.1 |
| 20260507015704 | 57 | 230 | 1.7 | 8.7 | 0.00 | 0.14 | 0.14 | 99 | 1004.0 |
| 20260507014203 | 57 | 230 | 2.6 | 8.7 | 0.00 | 0.14 | 0.14 | 99 | 1004.1 |
| 20260507013703 | 57 | 230 | 4.3 | 7.8 | 0.00 | 0.14 | 0.14 | 99 | 1004.2 |
| 20260507013204 | 57 | 230 | 2.6 | 7.8 | 0.00 | 0.14 | 0.14 | 99 | 1004.1 |
| 20260507012703 | 57 | 230 | 2.6 | 7.8 | 0.00 | 0.14 | 0.14 | 99 | 1004.3 |
| 20260507012204 | 57 | 230 | 1.7 | 7.0 | 0.00 | 0.14 | 0.14 | 99 | 1004.0 |
| 20260507011204 | 57 | 220 | 2.6 | 13.0 | 0.00 | 0.14 | 0.14 | 99 | 1004.0 |
| 20260507010704 | 57 | 220 | 4.3 | 10.4 | 0.00 | 0.14 | 0.14 | 99 | 1004.2 |
| 20260507010203 | 57 | 220 | 3.5 | 10.4 | 0.00 | 0.14 | 0.14 | 99 | 1004.2 |
| 20260507005204 | 57 | 220 | 2.6 | 8.7 | 0.00 | 0.14 | 0.14 | 99 | 1004.3 |
| 20260507004704 | 57 | 220 | 4.3 | 12.2 | 0.00 | 0.14 | 0.14 | 99 | 1004.3 |
| 20260507004203 | 57 | 220 | 5.2 | 11.3 | 0.00 | 0.14 | 0.14 | 99 | 1004.2 |
| 20260507003703 | 57 | 220 | 4.3 | 8.7 | 0.00 | 0.14 | 0.14 | 99 | 1004.2 |
| 20260507003204 | 57 | 220 | 6.1 | 12.2 | 0.00 | 0.14 | 0.14 | 99 | 1004.1 |
| 20260507002704 | 57 | 220 | 2.6 | 8.7 | 0.00 | 0.14 | 0.14 | 99 | 1004.2 |
| 20260507002204 | 57 | 220 | 5.2 | 13.0 | 0.00 | 0.14 | 0.14 | 99 | 1004.2 |
| 20260507001703 | 57 | 220 | 5.2 | 13.0 | 0.00 | 0.14 | 0.14 | 99 | 1004.1 |
| 20260507001203 | 57 | 220 | 3.5 | 8.7 | 0.00 | 0.14 | 0.14 | 99 | 1004.1 |
| 20260507000704 | 57 | 220 | 3.5 | 7.0 | 0.00 | 0.14 | 0.14 | 99 | 1004.2 |
| 20260506235703 | 57 | 210 | 2.6 | 10.4 | 0.01 | 0.14 | 0.14 | 99 | 1004.0 |
| 20260506235203 | 57 | 210 | 2.6 | 8.7 | 0.01 | 0.14 | 0.14 | 99 | 1003.8 |
| 20260506234204 | 57 | 210 | 5.2 | 13.9 | 0.01 | 0.14 | 0.14 | 99 | 1003.8 |
| 20260506233204 | 57 | 210 | 2.6 | 7.8 | 0.03 | 0.14 | 0.14 | 98 | 1003.7 |
| 20260506232704 | 57 | 210 | 5.2 | 10.4 | 0.04 | 0.14 | 0.14 | 98 | 1003.8 |
| 20260506232203 | 57 | 210 | 5.2 | 12.2 | 0.04 | 0.14 | 0.14 | 98 | 1003.7 |
| 20260506231204 | 57 | 210 | 5.2 | 13.0 | 0.04 | 0.14 | 0.14 | 99 | 1003.7 |
| 20260506230204 | 58 | 210 | 2.6 | 10.4 | 0.05 | 0.14 | 0.14 | 98 | 1003.6 |
| 20260506225703 | 58 | 200 | 5.2 | 10.4 | 0.04 | 0.13 | 0.13 | 98 | 1003.6 |
| 20260506225204 | 58 | 200 | 2.6 | 7.0 | 0.04 | 0.13 | 0.13 | 98 | 1003.7 |
| 20260506224704 | 58 | 200 | 4.3 | 10.4 | 0.04 | 0.13 | 0.13 | 98 | 1003.7 |
| 20260506224203 | 58 | 200 | 2.6 | 8.7 | 0.04 | 0.13 | 0.13 | 98 | 1003.7 |
| 20260506223704 | 58 | 200 | 4.3 | 7.8 | 0.03 | 0.12 | 0.12 | 98 | 1003.7 |
| 20260506223203 | 58 | 200 | 2.6 | 8.7 | 0.02 | 0.11 | 0.11 | 98 | 1003.7 |
| 20260506222704 | 58 | 200 | 4.3 | 11.3 | 0.01 | 0.10 | 0.10 | 98 | 1003.7 |
| 20260506221704 | 58 | 200 | 5.2 | 10.4 | 0.02 | 0.10 | 0.10 | 98 | 1003.9 |
| 20260506220203 | 58 | 200 | 3.5 | 7.0 | 0.02 | 0.09 | 0.09 | 98 | 1003.9 |
| 20260506215704 | 58 | 200 | 3.5 | 12.2 | 0.02 | 0.09 | 0.09 | 97 | 1004.1 |
| 20260506215203 | 58 | 200 | 3.5 | 10.4 | 0.02 | 0.09 | 0.09 | 97 | 1004.1 |
| 20260506214703 | 58 | 200 | 4.3 | 12.2 | 0.02 | 0.09 | 0.09 | 97 | 1004.0 |
| 20260506213704 | 58 | 200 | 4.3 | 10.4 | 0.02 | 0.09 | 0.09 | 97 | 1004.0 |
| 20260506213203 | 58 | 200 | 5.2 | 11.3 | 0.02 | 0.09 | 0.09 | 97 | 1004.0 |
| 20260506212704 | 58 | 200 | 5.2 | 10.4 | 0.02 | 0.09 | 0.09 | 97 | 1004.2 |
| 20260506211704 | 58 | 200 | 4.3 | 11.3 | 0.01 | 0.08 | 0.08 | 97 | 1004.4 |
| 20260506210704 | 59 | 200 | 2.6 | 7.8 | 0.00 | 0.07 | 0.07 | 97 | 1004.4 |
| 20260506210204 | 58 | 200 | 4.3 | 10.4 | 0.00 | 0.07 | 0.07 | 97 | 1004.3 |
| 20260506204703 | 58 | 200 | 4.3 | 11.3 | 0.00 | 0.07 | 0.07 | 96 | 1004.6 |
| 20260506204204 | 58 | 200 | 5.2 | 12.2 | 0.00 | 0.07 | 0.07 | 96 | 1004.6 |
| 20260506203703 | 58 | 200 | 5.2 | 11.3 | 0.00 | 0.07 | 0.07 | 96 | 1004.6 |
| 20260506203204 | 58 | 200 | 4.3 | 10.4 | 0.00 | 0.07 | 0.07 | 96 | 1004.6 |
| 20260506202703 | 58 | 200 | 4.3 | 13.0 | 0.00 | 0.07 | 0.07 | 96 | 1004.5 |
| 20260506202204 | 58 | 200 | 6.1 | 12.2 | 0.01 | 0.07 | 0.07 | 95 | 1004.6 |
| 20260506201704 | 58 | 200 | 6.1 | 11.3 | 0.01 | 0.07 | 0.07 | 95 | 1004.6 |
| 20260506201204 | 59 | 200 | 5.2 | 11.3 | 0.01 | 0.07 | 0.07 | 95 | 1004.6 |
| 20260506200703 | 58 | 200 | 6.1 | 15.6 | 0.02 | 0.07 | 0.07 | 95 | 1004.6 |
| 20260506200204 | 58 | 200 | 6.1 | 11.3 | 0.02 | 0.07 | 0.07 | 95 | 1004.7 |
| 20260506195703 | 59 | 190 | 5.2 | 10.4 | 0.03 | 0.07 | 0.07 | 95 | 1004.8 |
| 20260506195204 | 59 | 190 | 5.2 | 10.4 | 0.03 | 0.07 | 0.07 | 95 | 1004.8 |
| 20260506193704 | 59 | 190 | 4.3 | 13.0 | 0.05 | 0.07 | 0.07 | 94 | 1004.8 |
| 20260506193203 | 59 | 190 | 5.2 | 11.3 | 0.05 | 0.07 | 0.07 | 94 | 1004.9 |
| 20260506192704 | 59 | 190 | 5.2 | 12.2 | 0.06 | 0.07 | 0.07 | 94 | 1005.0 |
| 20260506192204 | 59 | 190 | 5.2 | 10.4 | 0.05 | 0.06 | 0.06 | 95 | 1005.1 |
| 20260506191704 | 59 | 190 | 3.5 | 10.4 | 0.06 | 0.06 | 0.06 | 94 | 1005.0 |
| 20260506191204 | 59 | 190 | 4.3 | 7.8 | 0.06 | 0.06 | 0.06 | 94 | 1004.9 |
| 20260506190204 | 60 | 190 | 6.1 | 13.9 | 0.05 | 0.05 | 0.05 | 92 | 1004.9 |
| 20260506185703 | 60 | 210 | 2.6 | 10.4 | 0.04 | 0.04 | 0.04 | 92 | 1005.0 |
| 20260506185204 | 61 | 210 | 5.2 | 11.3 | 0.04 | 0.04 | 0.04 | 91 | 1005.0 |
| 20260506184703 | 61 | 210 | 3.5 | 11.3 | 0.03 | 0.03 | 0.03 | 90 | 1004.9 |
| 20260506184204 | 61 | 210 | 4.3 | 13.9 | 0.03 | 0.03 | 0.03 | 89 | 1005.0 |
| 20260506183704 | 62 | 210 | 3.5 | 13.9 | 0.02 | 0.02 | 0.02 | 89 | 1005.0 |
| 20260506183204 | 62 | 210 | 3.5 | 8.7 | 0.02 | 0.02 | 0.02 | 88 | 1005.1 |
| 20260506182204 | 63 | 210 | 4.3 | 10.4 | 0.01 | 0.01 | 0.01 | 86 | 1005.3 |
| 20260506181704 | 63 | 210 | 3.5 | 11.3 | 0.00 | 0.00 | 0.00 | 85 | 1005.5 |
| 20260506181203 | 64 | 210 | 6.1 | 13.9 | 0.00 | 0.00 | 0.00 | 84 | 1005.4 |
| 20260506180703 | 64 | 210 | 5.2 | 12.2 | 0.00 | 0.00 | 0.00 | 83 | 1005.6 |
| 20260506175704 | 65 | 210 | 6.1 | 12.2 | 0.00 | 0.00 | 0.00 | 80 | 1005.5 |
| 20260506175203 | 65 | 210 | 4.3 | 11.3 | 0.00 | 0.00 | 0.00 | 79 | 1005.4 |
| 20260506174704 | 66 | 210 | 6.1 | 15.6 | 0.00 | 0.00 | 0.00 | 77 | 1005.5 |
| 20260506173704 | 67 | 210 | 11.3 | 24.3 | 0.00 | 0.00 | 0.00 | 73 | 1005.6 |
| 20260506172704 | 69 | 210 | 7.0 | 18.2 | 0.00 | 0.00 | 0.00 | 69 | 1005.4 |
| 20260506172204 | 69 | 210 | 8.7 | 14.8 | 0.00 | 0.00 | 0.00 | 68 | 1005.5 |
| 20260506171203 | 69 | 210 | 7.0 | 17.4 | 0.00 | 0.00 | 0.00 | 66 | 1005.4 |
| 20260506170704 | 69 | 210 | 8.7 | 19.1 | 0.00 | 0.00 | 0.00 | 67 | 1005.4 |
| 20260506165704 | 69 | 200 | 4.3 | 12.2 | 0.00 | 0.00 | 0.00 | 67 | 1005.4 |
| 20260506165204 | 69 | 200 | 7.8 | 19.1 | 0.00 | 0.00 | 0.00 | 65 | 1005.4 |
| 20260506164704 | 70 | 200 | 7.0 | 15.6 | 0.00 | 0.00 | 0.00 | 65 | 1005.5 |
| 20260506164204 | 70 | 200 | 6.1 | 15.6 | 0.00 | 0.00 | 0.00 | 66 | 1005.7 |
| 20260506163704 | 70 | 200 | 4.3 | 12.2 | 0.00 | 0.00 | 0.00 | 67 | 1005.7 |
| 20260506163204 | 69 | 200 | 6.1 | 14.8 | 0.00 | 0.00 | 0.00 | 67 | 1005.7 |
| 20260506162204 | 69 | 200 | 6.1 | 13.0 | 0.00 | 0.00 | 0.00 | 66 | 1005.8 |
| 20260506161703 | 70 | 200 | 8.7 | 17.4 | 0.00 | 0.00 | 0.00 | 65 | 1005.9 |
| 20260506161204 | 69 | 200 | 8.7 | 26.1 | 0.00 | 0.00 | 0.00 | 65 | 1005.9 |
| 20260506160204 | 69 | 200 | 9.6 | 21.7 | 0.00 | 0.00 | 0.00 | 65 | 1006.0 |
| 20260506155704 | 69 | 210 | 8.7 | 19.1 | 0.00 | 0.00 | 0.00 | 67 | 1006.1 |
| 20260506155203 | 69 | 210 | 5.2 | 17.4 | 0.00 | 0.00 | 0.00 | 67 | 1006.1 |
| 20260506154703 | 69 | 210 | 7.8 | 18.2 | 0.00 | 0.00 | 0.00 | 68 | 1006.1 |
| 20260506154204 | 69 | 210 | 6.1 | 17.4 | 0.00 | 0.00 | 0.00 | 68 | 1006.1 |
| 20260506153703 | 69 | 210 | 7.0 | 17.4 | 0.00 | 0.00 | 0.00 | 69 | 1006.2 |
| 20260506152703 | 68 | 210 | 6.1 | 13.0 | 0.00 | 0.00 | 0.00 | 70 | 1006.3 |
| 20260506151704 | 68 | 210 | 6.1 | 17.4 | 0.00 | 0.00 | 0.00 | 69 | 1006.5 |
| 20260506151204 | 69 | 210 | 3.5 | 8.7 | 0.00 | 0.00 | 0.00 | 70 | 1006.5 |
| 20260506150703 | 69 | 210 | 5.2 | 13.0 | 0.00 | 0.00 | 0.00 | 70 | 1006.6 |
| 20260506150204 | 68 | 210 | 6.1 | 13.0 | 0.00 | 0.00 | 0.00 | 70 | 1006.8 |
| 20260506145703 | 68 | 180 | 6.1 | 13.0 | 0.00 | 0.00 | 0.00 | 71 | 1006.7 |
| 20260506144704 | 68 | 180 | 5.2 | 12.2 | 0.00 | 0.00 | 0.00 | 73 | 1006.9 |
| 20260506144203 | 67 | 180 | 8.7 | 14.8 | 0.00 | 0.00 | 0.00 | 73 | 1006.8 |
| 20260506142704 | 66 | 180 | 5.2 | 13.9 | 0.00 | 0.00 | 0.00 | 76 | 1006.8 |
| 20260506142204 | 66 | 180 | 5.2 | 13.9 | 0.00 | 0.00 | 0.00 | 76 | 1006.8 |
| 20260506141704 | 66 | 180 | 5.2 | 10.4 | 0.00 | 0.00 | 0.00 | 77 | 1006.8 |
| 20260506141203 | 66 | 180 | 7.8 | 12.2 | 0.00 | 0.00 | 0.00 | 76 | 1006.9 |
| 20260506140704 | 65 | 180 | 4.3 | 12.2 | 0.00 | 0.00 | 0.00 | 77 | 1006.7 |
| 20260506140203 | 65 | 180 | 8.7 | 17.4 | 0.00 | 0.00 | 0.00 | 77 | 1006.7 |
| 20260506135704 | 65 | 200 | 4.3 | 10.4 | 0.00 | 0.00 | 0.00 | 79 | 1006.7 |
| 20260506135203 | 65 | 200 | 6.1 | 10.4 | 0.00 | 0.00 | 0.00 | 80 | 1006.7 |
| 20260506134204 | 64 | 200 | 5.2 | 15.6 | 0.00 | 0.00 | 0.00 | 80 | 1006.9 |
| 20260506133204 | 63 | 200 | 3.5 | 10.4 | 0.00 | 0.00 | 0.00 | 82 | 1006.9 |
| 20260506132703 | 63 | 200 | 6.1 | 10.4 | 0.00 | 0.00 | 0.00 | 82 | 1006.8 |
| 20260506132204 | 63 | 200 | 6.1 | 13.0 | 0.00 | 0.00 | 0.00 | 83 | 1007.0 |
| 20260506131703 | 62 | 200 | 3.5 | 10.4 | 0.00 | 0.00 | 0.00 | 83 | 1007.4 |
| 20260506131204 | 62 | 200 | 4.3 | 13.0 | 0.00 | 0.00 | 0.00 | 85 | 1007.6 |
| 20260506130204 | 61 | 200 | 4.3 | 12.2 | 0.00 | 0.00 | 0.00 | 86 | 1007.6 |
| 20260506125203 | 61 | 210 | 5.2 | 13.9 | 0.00 | 0.00 | 0.00 | 85 | 1007.6 |
| 20260506124703 | 61 | 210 | 4.3 | 14.8 | 0.00 | 0.00 | 0.00 | 85 | 1007.5 |
| 20260506124204 | 61 | 210 | 7.8 | 13.9 | 0.00 | 0.00 | 0.00 | 85 | 1007.5 |
| 20260506123704 | 61 | 210 | 4.3 | 10.4 | 0.00 | 0.00 | 0.00 | 85 | 1007.4 |
| 20260506123204 | 61 | 210 | 4.3 | 10.4 | 0.00 | 0.00 | 0.00 | 87 | 1007.5 |
| 20260506122704 | 60 | 210 | 5.2 | 11.3 | 0.00 | 0.00 | 0.00 | 88 | 1007.6 |
| 20260506121703 | 59 | 210 | 6.1 | 12.2 | 0.00 | 0.00 | 0.00 | 87 | 1007.5 |
| 20260506121204 | 60 | 210 | 4.3 | 12.2 | 0.00 | 0.00 | 0.00 | 87 | 1007.8 |
| 20260506115703 | 59 | 220 | 7.8 | 14.8 | 0.00 | 0.00 | 0.00 | 88 | 1007.5 |
| 20260506115204 | 59 | 220 | 5.2 | 14.8 | 0.00 | 0.00 | 0.00 | 89 | 1007.6 |
| 20260506114704 | 58 | 220 | 5.2 | 11.3 | 0.00 | 0.00 | 0.00 | 89 | 1007.7 |
| 20260506114204 | 58 | 220 | 4.3 | 10.4 | 0.00 | 0.00 | 0.00 | 90 | 1007.6 |
| 20260506113704 | 58 | 220 | 5.2 | 11.3 | 0.00 | 0.00 | 0.00 | 90 | 1007.9 |
| 20260506113204 | 57 | 220 | 5.2 | 12.2 | 0.00 | 0.00 | 0.00 | 90 | 1007.8 |
| 20260506112704 | 57 | 220 | 6.1 | 12.2 | 0.00 | 0.00 | 0.00 | 91 | 1007.9 |
| 20260506112203 | 57 | 220 | 7.8 | 13.9 | 0.00 | 0.00 | 0.00 | 90 | 1007.7 |
| 20260506111204 | 57 | 220 | 5.2 | 11.3 | 0.00 | 0.00 | 0.00 | 90 | 1008.1 |
| 20260506110704 | 57 | 220 | 6.1 | 13.0 | 0.00 | 0.00 | 0.00 | 91 | 1008.1 |
| 20260506110204 | 57 | 220 | 5.2 | 13.0 | 0.00 | 0.00 | 0.00 | 91 | 1008.0 |
| 20260506105704 | 55 | 210 | 5.2 | 13.0 | 0.00 | 0.00 | 0.00 | 91 | 1007.8 |
| 20260506105203 | 55 | 210 | 4.3 | 12.2 | 0.00 | 0.00 | 0.00 | 91 | 1007.9 |
| 20260506104704 | 55 | 210 | 6.1 | 15.6 | 0.00 | 0.00 | 0.00 | 91 | 1007.8 |